Samarkand, Uzbekistan
Current Conditions -  °F | °C
As of 1:00 AM on Friday 30 Jan 2015 (Local Time) from UTSS Reporting Station
Clear Clear  
Wind Chill: 29°   Ceiling: Unl
Heat Index: 34°   Visibility: 6mi
Dew Point: 21°   Wind: 6mph
Humidity: 60%   Direction: 130°SE
Pressure: 30"   Gusts: NA
Location:  39.66°N, 66.95°E
Report Text: UTSS 292000Z 13005KT 100V660NSC 01/M06 Q1016 R88/CLRD70 NOSIG
Loading
Personal Weather Stations






























Interactive Weather Map New forecast layout! Learn more

10-Day Weather Forecast

Advertisements
Track Severe Weather on mobile